createdAt,value
2017-09-16T00:00:13.733Z,0
2017-09-16T00:00:54.291Z,0
2017-09-16T00:01:34.853Z,0
2017-09-16T00:02:15.431Z,0
2017-09-16T00:02:55.981Z,0
2017-09-16T00:03:36.572Z,0
2017-09-16T00:04:17.127Z,0
2017-09-16T00:04:57.687Z,0
2017-09-16T00:05:38.255Z,0
2017-09-16T00:06:18.820Z,0
2017-09-16T00:06:59.380Z,0
2017-09-16T00:07:39.959Z,0
2017-09-16T00:08:20.513Z,0
2017-09-16T00:09:01.076Z,0
2017-09-16T00:09:41.649Z,0
2017-09-16T00:10:22.192Z,0
2017-09-16T00:11:02.755Z,0
2017-09-16T00:11:43.318Z,0
2017-09-16T00:12:23.881Z,0
2017-09-16T00:13:04.445Z,0
2017-09-16T00:13:45.025Z,0
2017-09-16T00:14:25.586Z,0
2017-09-16T00:15:06.140Z,0
2017-09-16T00:15:46.709Z,0
2017-09-16T00:16:27.280Z,0
2017-09-16T00:17:07.835Z,0
2017-09-16T00:17:48.402Z,0
2017-09-16T00:18:28.966Z,0
2017-09-16T00:19:09.513Z,0
2017-09-16T00:19:50.073Z,0
2017-09-16T00:20:30.632Z,0
2017-09-16T00:21:11.218Z,0
2017-09-16T00:21:51.786Z,0
2017-09-16T00:22:32.346Z,0
2017-09-16T00:23:12.914Z,0
2017-09-16T00:23:53.480Z,0
2017-09-16T00:24:34.034Z,0
2017-09-16T00:25:14.607Z,0
2017-09-16T00:25:55.174Z,0
2017-09-16T00:26:35.730Z,0
2017-09-16T00:27:16.291Z,0
2017-09-16T00:27:56.851Z,0
2017-09-16T00:28:37.420Z,0
2017-09-16T00:29:17.979Z,0
2017-09-16T00:29:58.539Z,0
2017-09-16T00:30:39.105Z,0
2017-09-16T00:31:19.662Z,0
2017-09-16T00:32:00.218Z,0
2017-09-16T00:32:40.791Z,0
2017-09-16T00:33:21.359Z,0
2017-09-16T00:34:01.913Z,0
2017-09-16T00:34:42.491Z,0
2017-09-16T00:35:23.055Z,0
2017-09-16T00:36:03.613Z,0
2017-09-16T00:36:44.173Z,0
2017-09-16T00:37:24.740Z,0
2017-09-16T00:38:05.314Z,0
2017-09-16T00:38:45.844Z,0
2017-09-16T00:39:26.412Z,0
2017-09-16T00:40:06.981Z,0
2017-09-16T00:40:47.553Z,0
2017-09-16T00:41:28.111Z,0
2017-09-16T00:42:08.694Z,0
2017-09-16T00:42:49.253Z,0
2017-09-16T00:43:29.819Z,0
2017-09-16T00:44:10.375Z,0
2017-09-16T00:44:50.945Z,0
2017-09-16T00:45:31.517Z,0
2017-09-16T00:46:12.070Z,0
2017-09-16T00:46:52.625Z,0
2017-09-16T00:47:33.181Z,0
2017-09-16T00:48:13.752Z,0
2017-09-16T00:48:54.302Z,0
2017-09-16T00:49:34.874Z,0
2017-09-16T00:50:15.481Z,0
2017-09-16T00:50:56.040Z,0
2017-09-16T00:51:36.587Z,0
2017-09-16T00:52:17.141Z,0
2017-09-16T00:52:57.707Z,0
2017-09-16T00:53:38.265Z,0
2017-09-16T00:54:18.821Z,0
2017-09-16T00:54:59.397Z,0
2017-09-16T00:55:39.962Z,0
2017-09-16T00:56:20.521Z,0
2017-09-16T00:57:01.106Z,0
2017-09-16T00:57:41.677Z,0
2017-09-16T00:58:22.232Z,0
2017-09-16T00:59:02.796Z,0
2017-09-16T00:59:43.368Z,0
2017-09-16T01:00:23.934Z,0
2017-09-16T01:01:04.499Z,0
2017-09-16T01:01:45.035Z,0
2017-09-16T01:02:25.613Z,0
2017-09-16T01:03:06.186Z,0
2017-09-16T01:03:46.735Z,0
2017-09-16T01:04:27.300Z,0
2017-09-16T01:05:07.869Z,0
2017-09-16T01:05:48.411Z,0
2017-09-16T01:06:28.958Z,0
2017-09-16T01:07:09.521Z,0
2017-09-16T01:07:50.088Z,0
2017-09-16T01:08:30.659Z,0
2017-09-16T01:09:11.214Z,0
2017-09-16T01:09:51.789Z,0
2017-09-16T01:10:32.356Z,0
2017-09-16T01:11:12.922Z,0
2017-09-16T01:11:53.484Z,0
2017-09-16T01:12:34.068Z,0
2017-09-16T01:13:14.615Z,0
2017-09-16T01:13:55.174Z,0
2017-09-16T01:14:35.739Z,0
2017-09-16T01:15:16.306Z,0
2017-09-16T01:15:56.874Z,0
2017-09-16T01:16:37.431Z,0
2017-09-16T01:17:18.003Z,0
2017-09-16T01:17:58.572Z,0
2017-09-16T01:18:39.132Z,0
2017-09-16T01:19:19.687Z,0
2017-09-16T01:20:00.250Z,0
2017-09-16T01:20:40.810Z,0
2017-09-16T01:21:21.382Z,0
2017-09-16T01:22:01.945Z,0
2017-09-16T01:22:42.523Z,0
2017-09-16T01:23:23.085Z,0
2017-09-16T01:24:03.644Z,0
2017-09-16T01:24:44.202Z,0
2017-09-16T01:25:24.766Z,0
2017-09-16T01:26:05.345Z,0
2017-09-16T01:26:45.900Z,0
2017-09-16T01:27:26.475Z,0
2017-09-16T01:28:07.040Z,0
2017-09-16T01:28:47.596Z,0
2017-09-16T01:29:28.159Z,0
2017-09-16T01:30:08.720Z,0
2017-09-16T01:30:49.284Z,0
2017-09-16T01:31:29.843Z,0
2017-09-16T01:32:10.417Z,0
2017-09-16T01:32:50.981Z,0
2017-09-16T01:33:31.543Z,0
2017-09-16T01:34:12.110Z,0
2017-09-16T01:34:52.676Z,0
2017-09-16T01:35:33.244Z,0
2017-09-16T01:36:13.791Z,0
2017-09-16T01:36:54.359Z,0
2017-09-16T01:37:34.921Z,0
2017-09-16T01:38:15.482Z,0
2017-09-16T01:38:56.045Z,0
2017-09-16T01:39:36.617Z,0
2017-09-16T01:40:17.178Z,0
2017-09-16T01:40:57.744Z,0
2017-09-16T01:41:38.307Z,0
2017-09-16T01:42:18.864Z,0
2017-09-16T01:42:59.416Z,0
2017-09-16T01:43:39.984Z,0
2017-09-16T01:44:20.535Z,0
2017-09-16T01:45:01.096Z,0
2017-09-16T01:45:41.654Z,0
2017-09-16T01:46:22.220Z,0
2017-09-16T01:47:02.782Z,0
2017-09-16T01:47:43.338Z,0
2017-09-16T01:48:23.903Z,0
2017-09-16T01:49:04.455Z,0
2017-09-16T01:49:45.013Z,0
2017-09-16T01:50:25.569Z,0
2017-09-16T01:51:06.138Z,0
2017-09-16T01:51:46.699Z,0
2017-09-16T01:52:27.262Z,0
2017-09-16T01:53:07.827Z,0
2017-09-16T01:53:48.385Z,0
2017-09-16T01:54:28.938Z,0
2017-09-16T01:55:09.498Z,0
2017-09-16T01:55:50.057Z,0
2017-09-16T01:56:30.624Z,0
2017-09-16T01:57:11.170Z,0
2017-09-16T01:57:51.723Z,0
2017-09-16T01:58:32.298Z,0
2017-09-16T01:59:12.883Z,0
2017-09-16T01:59:53.420Z,0
2017-09-16T02:00:33.980Z,0
2017-09-16T02:01:14.560Z,0
2017-09-16T02:01:55.123Z,0
2017-09-16T02:02:35.693Z,0
2017-09-16T02:03:16.249Z,0
2017-09-16T02:03:56.800Z,0
2017-09-16T02:04:37.361Z,0
2017-09-16T02:05:17.933Z,0
2017-09-16T02:05:58.531Z,0
2017-09-16T02:06:39.080Z,0
2017-09-16T02:07:19.660Z,0
2017-09-16T02:08:00.197Z,0
2017-09-16T02:08:40.753Z,0
2017-09-16T02:09:21.312Z,0
2017-09-16T02:10:01.872Z,0
2017-09-16T02:10:42.434Z,0
2017-09-16T02:11:22.992Z,0
2017-09-16T02:12:03.582Z,0
2017-09-16T02:12:44.140Z,0
2017-09-16T02:13:24.695Z,0
2017-09-16T02:14:05.259Z,0
2017-09-16T02:14:45.819Z,0
2017-09-16T02:15:26.386Z,0
2017-09-16T02:16:06.948Z,0
2017-09-16T02:16:47.511Z,0
2017-09-16T02:17:28.090Z,0
2017-09-16T02:18:08.640Z,0
2017-09-16T02:18:49.208Z,0
2017-09-16T02:19:29.760Z,0
2017-09-16T02:20:10.310Z,0
2017-09-16T02:20:50.870Z,0
2017-09-16T02:21:31.430Z,0
2017-09-16T02:22:12.001Z,0
2017-09-16T02:22:52.579Z,0
2017-09-16T02:23:33.130Z,0
2017-09-16T02:24:13.697Z,0
2017-09-16T02:24:54.236Z,0
2017-09-16T02:25:34.802Z,0
2017-09-16T02:26:15.359Z,0
2017-09-16T02:26:55.926Z,0
2017-09-16T02:27:36.503Z,0
2017-09-16T02:28:17.060Z,0
2017-09-16T02:28:57.623Z,0
2017-09-16T02:29:38.180Z,0
2017-09-16T02:30:18.741Z,0
2017-09-16T02:30:59.302Z,0
2017-09-16T02:31:39.868Z,0
2017-09-16T02:32:20.427Z,0
2017-09-16T02:33:00.985Z,0
2017-09-16T02:33:41.548Z,0
2017-09-16T02:34:22.112Z,0
2017-09-16T02:35:02.659Z,0
2017-09-16T02:35:43.225Z,0
2017-09-16T02:36:23.805Z,0
2017-09-16T02:37:04.374Z,0
2017-09-16T02:37:44.936Z,0
2017-09-16T02:38:25.500Z,0
2017-09-16T02:39:06.064Z,0
2017-09-16T02:39:46.624Z,0
2017-09-16T02:40:27.189Z,0
2017-09-16T02:41:07.748Z,0
2017-09-16T02:41:48.314Z,0
2017-09-16T02:42:28.868Z,0
2017-09-16T02:43:09.425Z,0
2017-09-16T02:43:49.990Z,0
2017-09-16T02:44:30.556Z,0
2017-09-16T02:45:11.124Z,0
2017-09-16T02:45:51.677Z,0
2017-09-16T02:46:32.245Z,0
2017-09-16T02:47:12.810Z,0
2017-09-16T02:47:53.362Z,0
2017-09-16T02:48:33.914Z,0
2017-09-16T02:49:14.474Z,0
2017-09-16T02:49:55.035Z,0
2017-09-16T02:50:35.577Z,0
2017-09-16T02:51:16.140Z,0
2017-09-16T02:51:56.698Z,0
2017-09-16T02:52:37.251Z,0
2017-09-16T02:53:17.820Z,0
2017-09-16T02:53:58.387Z,0
2017-09-16T02:54:38.951Z,0
2017-09-16T02:55:19.545Z,0
2017-09-16T02:56:00.108Z,0
2017-09-16T02:56:40.669Z,0
2017-09-16T02:57:21.216Z,0
2017-09-16T02:58:01.769Z,0
2017-09-16T02:58:42.324Z,0
2017-09-16T02:59:22.881Z,0
2017-09-16T03:00:03.436Z,0
2017-09-16T03:00:44.013Z,0
2017-09-16T03:01:24.557Z,0
2017-09-16T03:02:05.127Z,0
2017-09-16T03:02:45.678Z,0
2017-09-16T03:03:26.239Z,0
2017-09-16T03:04:06.801Z,0
2017-09-16T03:04:47.367Z,0
2017-09-16T03:05:27.912Z,0
2017-09-16T03:06:08.471Z,0
2017-09-16T03:06:49.019Z,0
2017-09-16T03:07:29.572Z,0
2017-09-16T03:08:10.144Z,0
2017-09-16T03:08:50.715Z,0
2017-09-16T03:09:31.262Z,0
2017-09-16T03:10:11.831Z,0
2017-09-16T03:10:52.393Z,0
2017-09-16T03:11:32.954Z,0
2017-09-16T03:12:13.519Z,0
2017-09-16T03:12:54.065Z,0
2017-09-16T03:13:34.621Z,0
2017-09-16T03:14:15.167Z,0
2017-09-16T03:14:55.717Z,0
2017-09-16T03:15:36.280Z,0
2017-09-16T03:16:16.852Z,0
2017-09-16T03:16:57.421Z,0
2017-09-16T03:17:37.969Z,0
2017-09-16T03:18:18.547Z,0
2017-09-16T03:18:59.099Z,0
2017-09-16T03:19:39.646Z,0
2017-09-16T03:20:20.230Z,0
2017-09-16T03:21:00.773Z,0
2017-09-16T03:21:41.337Z,0
2017-09-16T03:22:21.899Z,0
2017-09-16T03:23:02.461Z,0
2017-09-16T03:23:43.016Z,0
2017-09-16T03:24:23.596Z,0
2017-09-16T03:25:04.160Z,0
2017-09-16T03:25:44.716Z,0
2017-09-16T03:26:25.283Z,0
2017-09-16T03:27:05.833Z,0
2017-09-16T03:27:46.399Z,0
2017-09-16T03:28:26.950Z,0
2017-09-16T03:29:07.517Z,0
2017-09-16T03:29:48.084Z,0
2017-09-16T03:30:28.661Z,0
2017-09-16T03:31:09.233Z,0
2017-09-16T03:31:49.793Z,0
2017-09-16T03:32:30.379Z,0
2017-09-16T03:33:10.903Z,0
2017-09-16T03:33:51.491Z,0
2017-09-16T03:34:32.085Z,0
2017-09-16T03:35:12.645Z,0
2017-09-16T03:35:53.196Z,0
2017-09-16T03:36:33.751Z,0
2017-09-16T03:37:14.308Z,0
2017-09-16T03:37:54.868Z,0
2017-09-16T03:38:35.437Z,0
2017-09-16T03:39:16.006Z,0
2017-09-16T03:39:56.573Z,0
2017-09-16T03:40:37.138Z,0
2017-09-16T03:41:17.692Z,0
2017-09-16T03:41:58.253Z,0
2017-09-16T03:42:38.812Z,0
2017-09-16T03:43:19.372Z,0
2017-09-16T03:43:59.925Z,0
2017-09-16T03:44:40.486Z,0
2017-09-16T03:45:21.036Z,0
2017-09-16T03:46:01.608Z,0
2017-09-16T03:46:42.166Z,0
2017-09-16T03:47:22.715Z,0
2017-09-16T03:48:03.271Z,0
2017-09-16T03:48:43.837Z,0
2017-09-16T03:49:24.405Z,0
2017-09-16T03:50:04.963Z,0
2017-09-16T03:50:45.514Z,0
2017-09-16T03:51:26.072Z,0
2017-09-16T03:52:06.632Z,0
2017-09-16T03:52:47.187Z,0
2017-09-16T03:53:27.735Z,0
2017-09-16T03:54:08.273Z,0
2017-09-16T03:54:48.808Z,0
2017-09-16T03:55:29.360Z,0
2017-09-16T03:56:09.911Z,0
2017-09-16T03:56:50.473Z,0
2017-09-16T03:57:31.032Z,0
2017-09-16T03:58:11.585Z,0
2017-09-16T03:58:52.141Z,0
2017-09-16T03:59:32.687Z,0
2017-09-16T04:00:13.233Z,0
2017-09-16T04:00:53.775Z,0
2017-09-16T04:01:34.336Z,0
2017-09-16T04:02:14.886Z,0
2017-09-16T04:02:55.439Z,0
2017-09-16T04:03:35.989Z,0
2017-09-16T04:04:16.533Z,0
2017-09-16T04:04:57.095Z,0
2017-09-16T04:05:37.636Z,0
2017-09-16T04:06:18.203Z,0
2017-09-16T04:06:58.763Z,0
2017-09-16T04:07:39.320Z,0
2017-09-16T04:08:19.872Z,0
2017-09-16T04:09:00.428Z,0
2017-09-16T04:09:40.973Z,0
2017-09-16T04:10:21.540Z,0
2017-09-16T04:11:02.096Z,0
2017-09-16T04:11:42.669Z,0
2017-09-16T04:12:23.231Z,0
2017-09-16T04:13:03.801Z,0
2017-09-16T04:13:44.355Z,0
2017-09-16T04:14:24.916Z,0
2017-09-16T04:15:05.490Z,0
2017-09-16T04:15:46.049Z,0
2017-09-16T04:16:26.609Z,0
2017-09-16T04:17:07.176Z,0
2017-09-16T04:17:47.749Z,0
2017-09-16T04:18:28.310Z,0
2017-09-16T04:19:08.871Z,0
2017-09-16T04:19:49.441Z,0
2017-09-16T04:20:29.995Z,0
2017-09-16T04:21:10.542Z,0
2017-09-16T04:21:51.110Z,0
2017-09-16T04:22:31.676Z,0
2017-09-16T04:23:12.233Z,0
2017-09-16T04:23:52.824Z,0
2017-09-16T04:24:33.400Z,0
2017-09-16T04:25:13.977Z,0
2017-09-16T04:25:54.538Z,0
2017-09-16T04:26:35.097Z,0
2017-09-16T04:27:15.657Z,0
2017-09-16T04:27:56.215Z,0
2017-09-16T04:28:36.784Z,0
2017-09-16T04:29:17.368Z,0
2017-09-16T04:29:57.940Z,0
2017-09-16T04:30:38.490Z,0
2017-09-16T04:31:19.059Z,0
2017-09-16T04:31:59.600Z,0
2017-09-16T04:32:40.157Z,0
2017-09-16T04:33:20.721Z,0
2017-09-16T04:34:01.266Z,0
2017-09-16T04:34:41.802Z,0
2017-09-16T04:35:22.365Z,0
2017-09-16T04:36:02.939Z,0
2017-09-16T04:36:43.479Z,0
2017-09-16T04:37:24.047Z,0
2017-09-16T04:38:04.592Z,0
2017-09-16T04:38:45.162Z,0
2017-09-16T04:39:25.720Z,0
2017-09-16T04:40:06.288Z,0
2017-09-16T04:40:46.836Z,0
2017-09-16T04:41:27.399Z,0
2017-09-16T04:42:07.976Z,0
2017-09-16T04:42:48.525Z,0
2017-09-16T04:43:29.079Z,0
2017-09-16T04:44:09.624Z,0
2017-09-16T04:44:50.180Z,0
2017-09-16T04:45:30.737Z,0
2017-09-16T04:46:11.277Z,0
2017-09-16T04:46:51.825Z,0
2017-09-16T04:47:32.374Z,0
2017-09-16T04:48:12.930Z,0
2017-09-16T04:48:53.478Z,0
2017-09-16T04:49:34.026Z,0
2017-09-16T04:50:14.602Z,0
2017-09-16T04:50:55.157Z,0
2017-09-16T04:51:35.716Z,0
2017-09-16T04:52:16.277Z,0
2017-09-16T04:52:56.865Z,0
2017-09-16T04:53:37.437Z,0
2017-09-16T04:54:17.987Z,0
2017-09-16T04:54:58.550Z,0
2017-09-16T04:55:39.082Z,0
2017-09-16T04:56:19.641Z,0
2017-09-16T04:57:00.208Z,0
2017-09-16T04:57:40.780Z,0
2017-09-16T04:58:21.342Z,0
2017-09-16T04:59:01.906Z,0
2017-09-16T04:59:42.477Z,0
2017-09-16T05:00:23.044Z,0
2017-09-16T05:01:03.613Z,0
2017-09-16T05:01:44.159Z,0
2017-09-16T05:02:24.727Z,0
2017-09-16T05:03:05.283Z,0
2017-09-16T05:03:45.841Z,0
2017-09-16T05:04:26.654Z,0
2017-09-16T05:05:07.278Z,5
2017-09-16T05:05:47.843Z,5
2017-09-16T05:06:28.404Z,5
2017-09-16T05:07:08.967Z,5
2017-09-16T05:07:49.549Z,5
2017-09-16T05:08:30.131Z,5
2017-09-16T05:09:10.698Z,5
2017-09-16T05:09:51.266Z,5
2017-09-16T05:10:31.827Z,5
2017-09-16T05:11:12.381Z,5
2017-09-16T05:11:52.976Z,5
2017-09-16T05:12:33.534Z,5
2017-09-16T05:13:14.108Z,5
2017-09-16T05:13:54.674Z,10
2017-09-16T05:14:35.223Z,10
2017-09-16T05:15:15.762Z,10
2017-09-16T05:15:56.335Z,10
2017-09-16T05:16:36.902Z,10
2017-09-16T05:17:17.466Z,10
2017-09-16T05:17:58.039Z,10
2017-09-16T05:18:38.589Z,10
2017-09-16T05:19:19.141Z,10
2017-09-16T05:19:59.706Z,10
2017-09-16T05:20:40.283Z,15
2017-09-16T05:21:21.405Z,15
2017-09-16T05:22:01.390Z,15
2017-09-16T05:22:41.962Z,15
2017-09-16T05:23:22.534Z,15
2017-09-16T05:24:03.087Z,15
2017-09-16T05:24:43.658Z,15
2017-09-16T05:25:24.197Z,15
2017-09-16T05:26:04.761Z,15
2017-09-16T05:26:45.322Z,15
2017-09-16T05:27:25.898Z,15
2017-09-16T05:28:06.448Z,20
2017-09-16T05:28:47.016Z,20
2017-09-16T05:29:27.580Z,20
2017-09-16T05:30:08.148Z,20
2017-09-16T05:30:48.721Z,20
2017-09-16T05:31:29.283Z,20
2017-09-16T05:32:09.901Z,20
2017-09-16T05:32:50.467Z,20
2017-09-16T05:33:31.032Z,20
2017-09-16T05:34:11.595Z,20
2017-09-16T05:34:52.157Z,20
2017-09-16T05:35:32.721Z,20
2017-09-16T05:36:13.274Z,25
2017-09-16T05:36:53.833Z,25
2017-09-16T05:37:34.436Z,25
2017-09-16T05:38:14.981Z,25
2017-09-16T05:38:55.559Z,25
2017-09-16T05:39:36.096Z,25
2017-09-16T05:40:16.621Z,25
2017-09-16T05:40:57.174Z,25
2017-09-16T05:41:37.728Z,25
2017-09-16T05:42:18.270Z,25
2017-09-16T05:42:58.797Z,25
2017-09-16T05:43:39.339Z,25
2017-09-16T05:44:19.902Z,25
2017-09-16T05:45:00.446Z,25
2017-09-16T05:45:41.013Z,25
2017-09-16T05:46:21.566Z,25
2017-09-16T05:47:02.131Z,30
2017-09-16T05:47:42.692Z,30
2017-09-16T05:48:23.259Z,30
2017-09-16T05:49:03.827Z,25
2017-09-16T05:49:44.381Z,25
2017-09-16T05:50:24.942Z,25
2017-09-16T05:51:05.504Z,30
2017-09-16T05:51:46.059Z,30
2017-09-16T05:52:26.622Z,30
2017-09-16T05:53:07.185Z,30
2017-09-16T05:53:47.729Z,30
2017-09-16T05:54:28.309Z,30
2017-09-16T05:55:08.845Z,30
2017-09-16T05:55:49.413Z,30
2017-09-16T05:56:29.990Z,30
2017-09-16T05:57:10.555Z,30
2017-09-16T05:57:51.118Z,30
2017-09-16T05:58:31.683Z,30
2017-09-16T05:59:12.253Z,30
2017-09-16T05:59:52.804Z,30
2017-09-16T06:00:33.389Z,30
2017-09-16T06:01:14.004Z,30
2017-09-16T06:01:54.504Z,35
2017-09-16T06:02:35.104Z,35
2017-09-16T06:03:15.681Z,35
2017-09-16T06:03:56.309Z,35
2017-09-16T06:04:36.853Z,35
2017-09-16T06:05:17.406Z,35
2017-09-16T06:05:57.967Z,35
2017-09-16T06:06:38.527Z,35
2017-09-16T06:07:19.093Z,35
2017-09-16T06:07:59.670Z,35
2017-09-16T06:08:40.201Z,35
2017-09-16T06:09:20.754Z,40
2017-09-16T06:10:01.306Z,40
2017-09-16T06:10:41.880Z,40
2017-09-16T06:11:22.435Z,40
2017-09-16T06:12:02.993Z,40
2017-09-16T06:12:43.556Z,45
2017-09-16T06:13:24.101Z,45
2017-09-16T06:14:04.666Z,45
2017-09-16T06:14:45.227Z,45
2017-09-16T06:15:25.785Z,45
2017-09-16T06:16:06.356Z,45
2017-09-16T06:16:46.925Z,45
2017-09-16T06:17:27.483Z,45
2017-09-16T06:18:08.043Z,45
2017-09-16T06:18:48.599Z,45
2017-09-16T06:19:29.163Z,45
2017-09-16T06:20:09.728Z,45
2017-09-16T06:20:50.293Z,50
2017-09-16T06:21:30.853Z,50
2017-09-16T06:22:11.410Z,50
2017-09-16T06:22:51.976Z,50
2017-09-16T06:23:32.518Z,50
2017-09-16T06:24:13.060Z,50
2017-09-16T06:24:53.604Z,50
2017-09-16T06:25:34.178Z,55
2017-09-16T06:26:14.770Z,55
2017-09-16T06:26:55.320Z,55
2017-09-16T06:27:35.886Z,55
2017-09-16T06:28:16.466Z,55
2017-09-16T06:28:57.159Z,60
2017-09-16T06:29:37.710Z,60
2017-09-16T06:30:18.293Z,65
2017-09-16T06:30:58.860Z,65
2017-09-16T06:31:39.424Z,70
2017-09-16T06:32:19.984Z,75
2017-09-16T06:33:00.542Z,75
2017-09-16T06:33:41.085Z,75
2017-09-16T06:34:21.631Z,75
2017-09-16T06:35:02.232Z,75
2017-09-16T06:35:42.803Z,70
2017-09-16T06:36:23.384Z,70
2017-09-16T06:37:03.924Z,70
2017-09-16T06:37:44.481Z,75
2017-09-16T06:38:25.049Z,75
2017-09-16T06:39:05.623Z,75
2017-09-16T06:39:46.199Z,75
2017-09-16T06:40:26.745Z,75
2017-09-16T06:41:07.325Z,80
2017-09-16T06:41:47.876Z,80
2017-09-16T06:42:28.461Z,80
2017-09-16T06:43:08.980Z,80
2017-09-16T06:43:49.530Z,80
2017-09-16T06:44:30.097Z,80
2017-09-16T06:45:10.642Z,75
2017-09-16T06:45:51.199Z,80
2017-09-16T06:46:31.772Z,80
2017-09-16T06:47:12.322Z,75
2017-09-16T06:47:52.899Z,85
2017-09-16T06:48:33.468Z,85
2017-09-16T06:49:14.016Z,85
2017-09-16T06:49:54.576Z,85
2017-09-16T06:50:35.137Z,85
2017-09-16T06:51:15.708Z,85
2017-09-16T06:51:56.268Z,85
2017-09-16T06:52:36.831Z,85
2017-09-16T06:53:17.380Z,85
2017-09-16T06:53:57.940Z,85
2017-09-16T06:54:38.483Z,85
2017-09-16T06:55:19.030Z,90
2017-09-16T06:55:59.583Z,100
2017-09-16T06:56:40.146Z,105
2017-09-16T06:57:20.633Z,115
2017-09-16T06:58:01.201Z,110
2017-09-16T06:58:41.696Z,110
2017-09-16T06:59:22.301Z,110
2017-09-16T07:00:02.856Z,110
2017-09-16T07:00:43.406Z,110
2017-09-16T07:01:23.973Z,110
2017-09-16T07:02:04.548Z,110
2017-09-16T07:02:45.118Z,110
2017-09-16T07:03:25.671Z,110
2017-09-16T07:04:06.248Z,105
2017-09-16T07:04:46.813Z,100
2017-09-16T07:05:27.383Z,110
2017-09-16T07:06:07.931Z,110
2017-09-16T07:06:48.520Z,110
2017-09-16T07:07:29.059Z,105
2017-09-16T07:08:09.640Z,105
2017-09-16T07:08:50.213Z,105
2017-09-16T07:09:30.782Z,100
2017-09-16T07:10:11.359Z,100
2017-09-16T07:10:51.903Z,100
2017-09-16T07:11:32.455Z,95
2017-09-16T07:12:13.029Z,95
2017-09-16T07:12:53.602Z,95
2017-09-16T07:13:34.153Z,90
2017-09-16T07:14:14.698Z,90
2017-09-16T07:14:55.263Z,90
2017-09-16T07:15:35.807Z,90
2017-09-16T07:16:16.375Z,90
2017-09-16T07:16:56.960Z,90
2017-09-16T07:17:37.510Z,90
2017-09-16T07:18:18.072Z,90
2017-09-16T07:18:58.639Z,90
2017-09-16T07:19:39.215Z,90
2017-09-16T07:20:19.753Z,90
2017-09-16T07:21:00.316Z,90
2017-09-16T07:21:40.885Z,90
2017-09-16T07:22:21.438Z,90
2017-09-16T07:23:01.992Z,90
2017-09-16T07:23:42.543Z,90
2017-09-16T07:24:23.088Z,95
2017-09-16T07:25:03.639Z,95
2017-09-16T07:25:44.194Z,95
2017-09-16T07:26:24.739Z,100
2017-09-16T07:27:05.273Z,100
2017-09-16T07:27:45.830Z,105
2017-09-16T07:28:26.394Z,105
2017-09-16T07:29:06.959Z,105
2017-09-16T07:29:47.507Z,95
2017-09-16T07:30:28.050Z,110
2017-09-16T07:31:08.605Z,110
2017-09-16T07:31:49.165Z,105
2017-09-16T07:32:29.733Z,95
2017-09-16T07:33:10.278Z,80
2017-09-16T07:33:50.862Z,80
2017-09-16T07:34:31.395Z,100
2017-09-16T07:35:11.952Z,100
2017-09-16T07:35:52.526Z,95
2017-09-16T07:36:33.085Z,80
2017-09-16T07:37:13.664Z,75
2017-09-16T07:37:54.209Z,75
2017-09-16T07:38:34.772Z,75
2017-09-16T07:39:15.318Z,75
2017-09-16T07:39:55.845Z,80
2017-09-16T07:40:36.418Z,85
2017-09-16T07:41:17.036Z,85
2017-09-16T07:41:57.512Z,85
2017-09-16T07:42:38.076Z,90
2017-09-16T07:43:18.656Z,90
2017-09-16T07:43:59.216Z,95
2017-09-16T07:44:39.828Z,95
2017-09-16T07:45:20.350Z,95
2017-09-16T07:46:00.943Z,100
2017-09-16T07:46:41.483Z,105
2017-09-16T07:47:22.041Z,115
2017-09-16T07:48:02.739Z,110
2017-09-16T07:48:43.272Z,110
2017-09-16T07:49:23.864Z,105
2017-09-16T07:50:04.418Z,110
2017-09-16T07:50:44.960Z,105
2017-09-16T07:51:25.541Z,105
2017-09-16T07:52:06.101Z,105
2017-09-16T07:52:46.664Z,105
2017-09-16T07:53:27.230Z,105
2017-09-16T07:54:07.854Z,105
2017-09-16T07:54:48.421Z,110
2017-09-16T07:55:28.958Z,110
2017-09-16T07:56:09.522Z,110
2017-09-16T07:56:50.086Z,115
2017-09-16T07:57:30.612Z,120
2017-09-16T07:58:11.177Z,110
2017-09-16T07:58:51.723Z,110
2017-09-16T07:59:32.285Z,110
2017-09-16T08:00:12.841Z,105
2017-09-16T08:00:53.433Z,105
2017-09-16T08:01:33.985Z,105
2017-09-16T08:02:14.552Z,110
2017-09-16T08:02:55.106Z,115
2017-09-16T08:03:35.664Z,115
2017-09-16T08:04:16.259Z,110
2017-09-16T08:04:56.799Z,110
2017-09-16T08:05:37.365Z,115
2017-09-16T08:06:17.915Z,105
2017-09-16T08:06:58.438Z,110
2017-09-16T08:07:39.005Z,110
2017-09-16T08:08:19.542Z,110
2017-09-16T08:09:00.126Z,115
2017-09-16T08:09:40.698Z,115
2017-09-16T08:10:21.255Z,120
2017-09-16T08:11:01.842Z,115
2017-09-16T08:11:42.415Z,115
2017-09-16T08:12:23.055Z,115
2017-09-16T08:13:03.603Z,115
2017-09-16T08:13:44.311Z,105
2017-09-16T08:14:24.871Z,110
2017-09-16T08:15:05.545Z,115
2017-09-16T08:15:46.101Z,115
2017-09-16T08:16:26.679Z,115
2017-09-16T08:17:07.226Z,115
2017-09-16T08:17:47.812Z,115
2017-09-16T08:18:28.526Z,115
2017-09-16T08:19:08.970Z,115
2017-09-16T08:19:49.540Z,115
2017-09-16T08:20:30.099Z,110
2017-09-16T08:21:10.662Z,105
2017-09-16T08:21:51.193Z,105
2017-09-16T08:22:31.746Z,100
2017-09-16T08:23:12.317Z,100
2017-09-16T08:23:52.982Z,95
2017-09-16T08:24:33.586Z,95
2017-09-16T08:25:14.184Z,95
2017-09-16T08:25:54.697Z,95
2017-09-16T08:26:35.248Z,100
2017-09-16T08:27:15.793Z,100
2017-09-16T08:27:56.328Z,100
2017-09-16T08:28:36.888Z,100
2017-09-16T08:29:17.459Z,100
2017-09-16T08:29:58.032Z,100
2017-09-16T08:30:38.776Z,100
2017-09-16T08:31:19.225Z,100
2017-09-16T08:31:59.814Z,95
2017-09-16T08:32:40.311Z,95
2017-09-16T08:33:20.859Z,95
2017-09-16T08:34:01.393Z,95
2017-09-16T08:34:41.947Z,90
2017-09-16T08:35:22.516Z,90
2017-09-16T08:36:03.258Z,90
2017-09-16T08:36:43.730Z,90
2017-09-16T08:37:24.371Z,95
2017-09-16T08:38:04.912Z,95
2017-09-16T08:38:45.421Z,95
2017-09-16T08:39:25.991Z,95
2017-09-16T08:40:06.541Z,100
2017-09-16T08:40:47.063Z,90
2017-09-16T08:41:27.613Z,90
2017-09-16T08:42:08.176Z,90
2017-09-16T08:42:48.735Z,85
2017-09-16T08:43:29.359Z,85
2017-09-16T08:44:09.875Z,85
2017-09-16T08:44:50.396Z,85
2017-09-16T08:45:31.015Z,85
2017-09-16T08:46:11.524Z,85
2017-09-16T08:46:52.062Z,80
2017-09-16T08:47:32.594Z,80
2017-09-16T08:48:13.152Z,80
2017-09-16T08:48:53.884Z,85
2017-09-16T08:49:34.632Z,85
2017-09-16T08:50:15.230Z,85
2017-09-16T08:50:55.776Z,85
2017-09-16T08:51:36.295Z,85
2017-09-16T08:52:16.882Z,90
2017-09-16T08:52:57.380Z,90
2017-09-16T08:53:37.970Z,95
2017-09-16T08:54:18.544Z,95
2017-09-16T08:54:59.189Z,100
2017-09-16T08:55:39.777Z,100
2017-09-16T08:56:20.293Z,100
2017-09-16T08:57:00.871Z,105
2017-09-16T08:57:41.383Z,105
2017-09-16T08:58:21.956Z,105
2017-09-16T08:59:02.508Z,105
2017-09-16T08:59:43.061Z,105
2017-09-16T09:00:23.764Z,105
2017-09-16T09:01:04.287Z,105
2017-09-16T09:01:44.969Z,105
2017-09-16T09:02:25.615Z,105
2017-09-16T09:03:06.107Z,105
2017-09-16T09:03:46.654Z,105
2017-09-16T09:04:27.217Z,105
2017-09-16T09:05:07.824Z,105
2017-09-16T09:05:48.316Z,105
2017-09-16T09:06:28.880Z,100
2017-09-16T09:07:09.504Z,100
2017-09-16T09:07:50.004Z,100
2017-09-16T09:08:30.576Z,100
2017-09-16T09:09:11.131Z,105
2017-09-16T09:09:51.663Z,105
2017-09-16T09:10:32.235Z,105
2017-09-16T09:11:12.716Z,105
2017-09-16T09:11:53.357Z,110
2017-09-16T09:12:34.010Z,110
2017-09-16T09:13:14.571Z,110
2017-09-16T09:13:55.191Z,110
2017-09-16T09:14:35.676Z,110
2017-09-16T09:15:16.202Z,115
2017-09-16T09:15:56.770Z,115
2017-09-16T09:16:37.322Z,115
2017-09-16T09:17:17.856Z,115
2017-09-16T09:17:58.421Z,120
2017-09-16T09:18:39.017Z,120
2017-09-16T09:19:19.504Z,125
2017-09-16T09:20:00.064Z,120
2017-09-16T09:20:40.618Z,120
2017-09-16T09:21:21.126Z,120
2017-09-16T09:22:01.751Z,120
2017-09-16T09:22:42.317Z,120
2017-09-16T09:23:23.509Z,120
2017-09-16T09:24:04.051Z,120
2017-09-16T09:24:44.644Z,120
2017-09-16T09:25:25.211Z,115
2017-09-16T09:26:05.761Z,115
2017-09-16T09:26:46.350Z,110
2017-09-16T09:27:26.878Z,110
2017-09-16T09:28:07.402Z,110
2017-09-16T09:28:47.939Z,110
2017-09-16T09:29:28.498Z,110
2017-09-16T09:30:09.099Z,120
2017-09-16T09:30:49.708Z,105
2017-09-16T09:31:30.210Z,105
2017-09-16T09:32:10.801Z,100
2017-09-16T09:32:51.339Z,100
2017-09-16T09:33:31.906Z,100
2017-09-16T09:34:12.432Z,95
2017-09-16T09:34:53.016Z,90
2017-09-16T09:35:33.557Z,90
2017-09-16T09:36:14.080Z,85
2017-09-16T09:36:54.683Z,85
2017-09-16T09:37:35.184Z,85
2017-09-16T09:38:15.776Z,85
2017-09-16T09:38:56.304Z,85
2017-09-16T09:39:36.844Z,85
2017-09-16T09:40:17.399Z,85
2017-09-16T09:40:57.968Z,85
2017-09-16T09:41:38.527Z,85
2017-09-16T09:42:19.098Z,85
2017-09-16T09:42:59.598Z,85
2017-09-16T09:43:40.166Z,85
2017-09-16T09:44:20.750Z,85
2017-09-16T09:45:01.372Z,85
2017-09-16T09:45:41.947Z,85